Time;durP1;ratioP1;P1;durP2;ratioP2;P2;SDS_P1;SDS_P2;PMS_P1;PMS_P2;Temp;Humidity;BMP_temperature;BMP_pressure;BME280_temperature;BME280_humidity;BME280_pressure;Samples;Min_cycle;Max_cycle;Signal;HPM_P1;HPM_P2
2021/04/08 00:00:18;;;;;;;2.90;1.20;;;18.00;37.50;;;;;;5024866;28;20159;-80
2021/04/08 00:02:45;;;;;;;2.97;1.08;;;18.00;37.40;;;;;;5024965;28;20162;-80
2021/04/08 00:05:14;;;;;;;1.75;1.20;;;18.00;37.30;;;;;;5024521;28;20163;-81
2021/04/08 00:07:41;;;;;;;1.85;1.00;;;18.00;37.30;;;;;;5007672;28;20165;-80
2021/04/08 00:10:10;;;;;;;2.72;1.27;;;18.00;37.30;;;;;;5024015;28;20159;-80
2021/04/08 00:12:37;;;;;;;3.30;1.00;;;18.00;37.40;;;;;;5024119;28;20233;-80
2021/04/08 00:15:07;;;;;;;3.35;1.08;;;18.00;37.30;;;;;;5042540;28;20166;-80
2021/04/08 00:17:34;;;;;;;2.83;1.05;;;18.00;37.50;;;;;;5023566;28;20185;-80
2021/04/08 00:20:00;;;;;;;2.05;0.98;;;17.90;37.40;;;;;;5024208;28;20182;-79
2021/04/08 00:22:27;;;;;;;1.85;1.15;;;17.90;37.50;;;;;;5024041;28;20169;-80
2021/04/08 00:24:54;;;;;;;1.45;0.73;;;17.90;37.50;;;;;;5024134;28;20163;-80
2021/04/08 00:27:20;;;;;;;2.17;1.10;;;18.00;37.50;;;;;;5007322;28;20191;-80
2021/04/08 00:29:47;;;;;;;1.33;0.82;;;18.00;37.50;;;;;;5023912;28;20524;-80
2021/04/08 00:32:13;;;;;;;2.42;1.10;;;18.00;37.50;;;;;;5024016;28;20173;-79
2021/04/08 00:34:40;;;;;;;2.05;1.08;;;17.90;37.50;;;;;;5023671;28;20234;-81
2021/04/08 00:37:07;;;;;;;3.78;1.00;;;17.90;37.50;;;;;;5022890;28;20239;-79
2021/04/08 00:39:34;;;;;;;1.58;1.02;;;17.90;37.50;;;;;;5022946;28;20155;-79
2021/04/08 00:42:00;;;;;;;1.88;0.88;;;17.90;37.60;;;;;;5041840;28;20197;-80
2021/04/08 00:44:26;;;;;;;3.10;1.38;;;17.90;37.70;;;;;;5023410;28;20246;-79
2021/04/08 00:46:52;;;;;;;4.63;1.00;;;17.90;37.50;;;;;;5040844;28;20155;-79
2021/04/08 00:49:19;;;;;;;2.85;1.00;;;17.90;37.50;;;;;;5023602;28;20246;-80
2021/04/08 00:51:54;;;;;;;2.65;1.17;;;18.00;37.50;;;;;;5023510;28;20162;-80
2021/04/08 00:54:21;;;;;;;1.45;0.93;;;17.90;37.60;;;;;;5022904;28;20244;-80
2021/04/08 00:56:49;;;;;;;2.88;1.05;;;17.90;37.50;;;;;;5022572;28;20155;-80
2021/04/08 00:59:23;;;;;;;1.40;1.05;;;17.90;37.60;;;;;;5040897;28;20251;-80
2021/04/08 01:01:58;;;;;;;1.90;1.00;;;17.90;37.50;;;;;;5006330;28;20185;-79
2021/04/08 01:04:25;;;;;;;2.08;1.13;;;17.90;37.50;;;;;;5023326;28;20162;-80
2021/04/08 01:06:51;;;;;;;2.38;1.00;;;17.90;37.60;;;;;;5039396;28;20669;-80
2021/04/08 01:09:19;;;;;;;3.33;0.93;;;17.90;37.60;;;;;;5022587;28;20241;-79
2021/04/08 01:11:46;;;;;;;3.20;1.38;;;17.90;37.60;;;;;;5023696;28;20234;-80
2021/04/08 01:14:12;;;;;;;2.38;0.85;;;17.90;37.70;;;;;;5040502;28;20191;-79
2021/04/08 01:17:01;;;;;;;3.55;1.20;;;17.90;37.60;;;;;;5022430;28;20151;-80
2021/04/08 01:19:47;;;;;;;1.83;1.10;;;17.90;37.60;;;;;;5006700;28;20177;-80
2021/04/08 01:22:38;;;;;;;2.47;1.00;;;17.90;37.80;;;;;;5041259;28;20182;-80
2021/04/08 01:25:40;;;;;;;2.45;1.08;;;17.90;37.70;;;;;;5039906;28;20183;-80
2021/04/08 01:28:16;;;;;;;2.58;0.93;;;17.90;37.70;;;;;;5040445;28;20174;-80
2021/04/08 01:30:49;;;;;;;2.40;1.00;;;17.90;37.80;;;;;;5023116;28;20609;-80
2021/04/08 01:33:39;;;;;;;0.98;0.75;;;17.90;37.70;;;;;;5040263;28;20635;-80
2021/04/08 01:36:07;;;;;;;1.63;0.77;;;17.90;37.70;;;;;;4985197;28;20647;-79
2021/04/08 01:38:38;;;;;;;2.00;0.90;;;17.90;37.70;;;;;;4999309;28;20180;-80
2021/04/08 01:41:05;;;;;;;3.17;1.13;;;17.90;37.70;;;;;;4982794;28;20188;-80
2021/04/08 01:43:36;;;;;;;2.08;0.98;;;17.90;37.70;;;;;;4983112;28;20173;-80
2021/04/08 01:46:02;;;;;;;2.00;1.10;;;17.90;37.80;;;;;;4983102;28;20168;-80
2021/04/08 01:48:28;;;;;;;2.17;1.10;;;17.90;37.70;;;;;;4982488;28;20546;-79
2021/04/08 01:51:14;;;;;;;2.60;1.05;;;17.90;37.80;;;;;;4982981;28;20184;-80
2021/04/08 01:53:52;;;;;;;3.40;0.88;;;17.80;37.90;;;;;;4997010;28;20705;-79
2021/04/08 01:56:30;;;;;;;2.08;0.93;;;17.80;37.80;;;;;;4982815;28;20615;-80
2021/04/08 01:59:04;;;;;;;2.53;1.00;;;17.90;37.80;;;;;;4965986;28;20219;-79
2021/04/08 02:01:31;;;;;;;3.13;1.10;;;17.80;37.90;;;;;;4982355;28;20243;-79
2021/04/08 02:03:58;;;;;;;2.47;0.82;;;17.80;37.90;;;;;;4982430;28;20175;-80
2021/04/08 02:06:34;;;;;;;5.78;1.08;;;17.80;38.00;;;;;;4982137;28;20255;-81
2021/04/08 02:09:00;;;;;;;2.38;0.90;;;17.80;38.00;;;;;;4966111;28;20172;-81
2021/04/08 02:11:26;;;;;;;2.97;0.93;;;17.80;37.80;;;;;;4966021;28;20175;-80
2021/04/08 02:14:01;;;;;;;4.68;1.00;;;17.80;38.00;;;;;;5015324;28;20260;-80
2021/04/08 02:16:35;;;;;;;3.45;0.90;;;17.80;37.90;;;;;;5007188;28;20634;-80
2021/04/08 02:19:11;;;;;;;1.90;1.10;;;17.80;38.00;;;;;;5042401;28;20177;-80
2021/04/08 02:21:38;;;;;;;2.50;1.10;;;17.80;38.00;;;;;;5007452;28;20213;-80
2021/04/08 02:24:14;;;;;;;2.42;0.80;;;17.80;38.00;;;;;;5041253;28;20154;-80
2021/04/08 02:26:41;;;;;;;1.73;0.85;;;17.80;37.90;;;;;;5040966;28;20689;-80
2021/04/08 02:29:12;;;;;;;1.10;0.80;;;17.80;37.90;;;;;;5007517;28;20198;-81
2021/04/08 02:31:40;;;;;;;1.63;1.00;;;17.80;37.80;;;;;;5024620;28;20162;-80
2021/04/08 02:34:06;;;;;;;1.58;0.90;;;17.80;38.00;;;;;;5024092;28;20231;-79
2021/04/08 02:36:33;;;;;;;1.85;1.00;;;17.80;37.90;;;;;;5024113;28;20169;-80
2021/04/08 02:38:59;;;;;;;3.58;1.08;;;17.90;38.00;;;;;;5023254;28;20524;-81
2021/04/08 02:41:25;;;;;;;2.88;0.90;;;17.90;38.00;;;;;;5024363;28;20621;-79
2021/04/08 02:43:52;;;;;;;1.95;0.85;;;17.80;38.00;;;;;;5007195;28;20166;-80
2021/04/08 02:46:20;;;;;;;3.28;1.25;;;17.80;38.00;;;;;;5007281;28;20185;-80
2021/04/08 02:48:47;;;;;;;3.47;1.10;;;17.80;38.00;;;;;;5023075;28;20196;-80
2021/04/08 02:51:20;;;;;;;1.33;0.95;;;17.80;38.00;;;;;;5041169;28;20235;-80
2021/04/08 02:53:54;;;;;;;2.67;1.23;;;17.80;38.00;;;;;;5023383;28;20191;-80
2021/04/08 02:56:33;;;;;;;1.83;1.08;;;17.80;38.10;;;;;;5023082;28;20581;-80
2021/04/08 02:59:17;;;;;;;2.08;1.10;;;17.80;38.10;;;;;;5023356;28;20226;-80
2021/04/08 03:02:17;;;;;;;2.00;1.20;;;17.80;38.00;;;;;;5041185;28;20204;-80
2021/04/08 03:04:47;;;;;;;1.52;1.08;;;17.80;38.10;;;;;;5006337;28;20166;-80
2021/04/08 03:07:14;;;;;;;3.13;1.10;;;17.80;38.10;;;;;;5023441;28;20210;-80
2021/04/08 03:09:41;;;;;;;2.47;0.90;;;17.80;38.10;;;;;;5006760;28;20170;-80
2021/04/08 03:12:10;;;;;;;2.13;0.88;;;17.80;38.00;;;;;;5006699;28;20158;-81
2021/04/08 03:15:06;;;;;;;3.22;0.95;;;17.80;38.10;;;;;;5005893;28;20196;-80
2021/04/08 03:17:42;;;;;;;1.55;0.98;;;17.80;38.20;;;;;;5020845;28;20169;-80
2021/04/08 03:20:10;;;;;;;1.73;0.90;;;17.70;38.10;;;;;;5022891;28;20158;-80
2021/04/08 03:22:37;;;;;;;3.10;1.10;;;17.70;38.30;;;;;;5022360;28;20159;-80
2021/04/08 03:25:13;;;;;;;1.38;0.90;;;17.70;38.20;;;;;;5022097;28;20167;-80
2021/04/08 03:27:40;;;;;;;1.88;1.00;;;17.80;38.20;;;;;;5039573;28;20640;-80
2021/04/08 03:30:12;;;;;;;1.48;0.80;;;17.80;38.10;;;;;;5006817;28;20676;-80
2021/04/08 03:32:47;;;;;;;2.60;1.10;;;17.80;38.10;;;;;;5026087;28;20197;-80
2021/04/08 03:35:29;;;;;;;2.28;1.00;;;17.80;38.20;;;;;;5098277;28;20537;-79
2021/04/08 03:38:04;;;;;;;2.58;1.02;;;17.80;38.00;;;;;;5096222;28;20167;-79
2021/04/08 03:40:38;;;;;;;2.05;1.15;;;17.80;38.10;;;;;;5079579;28;20171;-80
2021/04/08 03:43:05;;;;;;;1.70;0.95;;;17.80;38.20;;;;;;5079954;28;20231;-79
2021/04/08 03:45:32;;;;;;;1.88;1.10;;;17.70;38.20;;;;;;5079860;28;20161;-79
2021/04/08 03:48:01;;;;;;;1.80;0.85;;;17.70;38.30;;;;;;5095831;28;20160;-79
2021/04/08 03:50:30;;;;;;;3.47;1.17;;;17.70;38.30;;;;;;5095713;28;20171;-79
2021/04/08 03:53:04;;;;;;;1.30;1.00;;;17.70;38.30;;;;;;5096110;28;20164;-79
2021/04/08 03:55:33;;;;;;;1.10;0.90;;;17.70;38.30;;;;;;5096327;28;20196;-79
2021/04/08 03:57:59;;;;;;;1.85;1.00;;;17.70;38.40;;;;;;5097164;28;20180;-79
2021/04/08 04:00:26;;;;;;;2.15;1.00;;;17.70;38.30;;;;;;5097318;28;20228;-79
2021/04/08 04:03:00;;;;;;;1.58;0.85;;;17.70;38.10;;;;;;5099431;28;20639;-79
2021/04/08 04:05:27;;;;;;;1.35;0.85;;;17.70;38.30;;;;;;5080099;28;20523;-79
2021/04/08 04:07:53;;;;;;;1.67;1.10;;;17.70;38.40;;;;;;5078592;28;20161;-79
2021/04/08 04:10:23;;;;;;;2.85;0.98;;;17.70;38.00;;;;;;5096407;28;20425;-79
2021/04/08 04:12:51;;;;;;;1.92;0.95;;;17.80;37.90;;;;;;5096139;28;20192;-78
2021/04/08 04:15:18;;;;;;;1.38;0.93;;;17.80;37.60;;;;;;5078986;28;20196;-79
2021/04/08 04:17:45;;;;;;;1.08;0.90;;;17.90;37.50;;;;;;5078989;28;20252;-79
2021/04/08 04:20:12;;;;;;;2.75;0.93;;;17.90;37.30;;;;;;5095578;28;20148;-78
2021/04/08 04:22:39;;;;;;;1.83;0.90;;;18.00;37.00;;;;;;5095875;28;20153;-79
2021/04/08 04:25:08;;;;;;;2.65;0.85;;;18.00;37.10;;;;;;5097797;28;20157;-79
2021/04/08 04:27:35;;;;;;;1.33;1.00;;;18.00;37.30;;;;;;5097249;28;20157;-79
2021/04/08 04:30:11;;;;;;;1.73;0.70;;;17.90;37.40;;;;;;5095948;28;20149;-79
2021/04/08 04:32:38;;;;;;;2.28;0.90;;;17.90;37.30;;;;;;5096844;28;20157;-79
2021/04/08 04:35:07;;;;;;;1.52;1.00;;;17.90;37.40;;;;;;5080035;28;20256;-79
2021/04/08 04:37:34;;;;;;;1.63;0.80;;;17.90;37.40;;;;;;5079235;28;20179;-79
2021/04/08 04:40:01;;;;;;;2.17;0.90;;;17.80;37.50;;;;;;5097040;28;20157;-78
2021/04/08 04:42:28;;;;;;;1.98;0.90;;;17.90;37.30;;;;;;5096031;28;20157;-79
2021/04/08 04:44:57;;;;;;;1.17;0.77;;;17.80;37.60;;;;;;5077509;28;20179;-79
2021/04/08 04:47:23;;;;;;;1.58;0.95;;;17.80;37.50;;;;;;5065603;28;20207;-79
2021/04/08 04:49:51;;;;;;;2.35;0.80;;;17.80;37.50;;;;;;5064920;28;20221;-79
2021/04/08 04:52:18;;;;;;;1.17;0.80;;;17.80;37.60;;;;;;5082835;28;20179;-79
2021/04/08 04:54:44;;;;;;;1.73;0.93;;;17.80;37.30;;;;;;5081479;28;20602;-79
2021/04/08 04:57:11;;;;;;;2.15;1.00;;;17.90;36.90;;;;;;5065396;28;20169;-78
2021/04/08 04:59:38;;;;;;;1.73;0.90;;;17.90;37.10;;;;;;5065250;28;20161;-78
2021/04/08 05:02:12;;;;;;;2.45;1.08;;;17.90;37.10;;;;;;5082319;28;20172;-79
2021/04/08 05:04:39;;;;;;;1.60;0.95;;;17.80;37.30;;;;;;5082205;28;20157;-79
2021/04/08 05:07:06;;;;;;;2.17;0.98;;;17.90;37.00;;;;;;5084292;28;20186;-79
2021/04/08 05:09:33;;;;;;;1.20;0.82;;;17.90;37.00;;;;;;5083214;28;20162;-79
2021/04/08 05:11:59;;;;;;;1.23;0.90;;;17.90;37.00;;;;;;5084691;28;20512;-81
2021/04/08 05:14:26;;;;;;;3.65;0.90;;;18.00;36.50;;;;;;5085153;28;20197;-79
2021/04/08 05:16:54;;;;;;;1.33;0.88;;;18.00;36.70;;;;;;5068671;28;20165;-79
2021/04/08 05:19:21;;;;;;;1.17;0.80;;;18.00;36.80;;;;;;5067735;28;20166;-78
2021/04/08 05:21:49;;;;;;;2.42;0.85;;;18.00;36.70;;;;;;5082543;28;20512;-79
2021/04/08 05:24:24;;;;;;;1.40;0.90;;;18.00;36.80;;;;;;5081696;28;20176;-78
2021/04/08 05:26:51;;;;;;;0.98;0.80;;;18.00;36.60;;;;;;5081942;28;20208;-78
2021/04/08 05:29:17;;;;;;;1.20;0.90;;;18.00;36.70;;;;;;5083527;28;20164;-79
2021/04/08 05:31:44;;;;;;;2.28;0.70;;;18.00;36.80;;;;;;5081925;28;20157;-78
2021/04/08 05:34:09;;;;;;;2.05;0.88;;;18.00;36.70;;;;;;5083180;28;20302;-79
2021/04/08 05:36:36;;;;;;;0.70;0.70;;;18.00;36.60;;;;;;5084609;28;20165;-79
2021/04/08 05:39:03;;;;;;;0.80;0.70;;;18.00;36.70;;;;;;5085140;28;20164;-77
2021/04/08 05:41:32;;;;;;;0.77;0.77;;;18.00;36.70;;;;;;5083786;28;20179;-79
2021/04/08 05:44:06;;;;;;;2.03;0.80;;;17.90;36.90;;;;;;5066358;28;20162;-78
2021/04/08 05:46:32;;;;;;;2.50;1.00;;;17.90;36.80;;;;;;5084754;28;20168;-79
2021/04/08 05:48:58;;;;;;;1.05;0.60;;;17.90;36.80;;;;;;5085253;28;20541;-78
2021/04/08 05:51:32;;;;;;;1.67;0.82;;;18.00;36.70;;;;;;5068018;28;20287;-79
2021/04/08 05:54:07;;;;;;;1.58;0.65;;;17.90;36.60;;;;;;5084034;28;20203;-80
2021/04/08 05:56:34;;;;;;;1.00;0.70;;;18.00;36.80;;;;;;5084726;28;20164;-80
2021/04/08 05:59:00;;;;;;;1.73;1.00;;;18.00;36.40;;;;;;5083843;28;20153;-79
2021/04/08 06:01:25;;;;;;;1.42;0.73;;;18.00;36.50;;;;;;5085327;28;20177;-79
2021/04/08 06:03:53;;;;;;;1.00;0.68;;;18.00;36.50;;;;;;5085829;28;20260;-80
2021/04/08 06:06:18;;;;;;;1.58;0.68;;;18.00;37.30;;;;;;5103776;28;20168;-78
2021/04/08 06:08:47;;;;;;;0.95;0.68;;;18.00;36.50;;;;;;5102822;28;20336;-80
2021/04/08 06:11:13;;;;;;;1.92;0.88;;;18.00;36.20;;;;;;5086261;28;20167;-80
2021/04/08 06:13:39;;;;;;;1.25;0.80;;;18.00;36.30;;;;;;5070016;28;20221;-79
2021/04/08 06:16:05;;;;;;;1.52;0.80;;;18.00;36.40;;;;;;5086418;28;20170;-79
2021/04/08 06:18:32;;;;;;;1.33;0.80;;;18.00;36.40;;;;;;5068791;28;20169;-80
2021/04/08 06:20:59;;;;;;;1.00;0.70;;;18.10;36.30;;;;;;5071996;28;20506;-79
2021/04/08 06:23:24;;;;;;;1.38;0.80;;;18.00;36.40;;;;;;5105836;28;20157;-80
2021/04/08 06:25:50;;;;;;;0.50;0.50;;;18.00;36.20;;;;;;5087859;28;20176;-79
2021/04/08 06:28:16;;;;;;;2.65;0.90;;;18.00;36.10;;;;;;5088006;28;20209;-80
2021/04/08 06:30:45;;;;;;;1.25;0.90;;;18.10;36.00;;;;;;5082548;28;20153;-80
2021/04/08 06:33:11;;;;;;;1.73;0.93;;;18.00;36.10;;;;;;5068378;28;20161;-79
2021/04/08 06:35:38;;;;;;;1.42;0.68;;;18.10;36.20;;;;;;5103137;28;20176;-80
2021/04/08 06:38:05;;;;;;;1.80;0.93;;;18.10;36.20;;;;;;5087571;28;20639;-79
2021/04/08 06:40:31;;;;;;;1.70;0.63;;;18.00;36.10;;;;;;5089251;28;20205;-81
2021/04/08 06:42:57;;;;;;;0.93;0.70;;;18.10;36.00;;;;;;5091028;28;20165;-80
2021/04/08 06:45:24;;;;;;;1.13;0.70;;;18.10;36.10;;;;;;5089527;28;20236;-80
2021/04/08 06:47:58;;;;;;;1.00;0.85;;;18.10;35.90;;;;;;5082231;28;20226;-79
2021/04/08 06:50:25;;;;;;;1.25;0.85;;;18.10;35.80;;;;;;5079334;28;20160;-79
2021/04/08 06:52:51;;;;;;;1.17;0.70;;;18.10;36.50;;;;;;5079923;28;20207;-79
2021/04/08 06:55:18;;;;;;;0.82;0.60;;;18.10;36.50;;;;;;5061231;28;20254;-79
2021/04/08 06:57:46;;;;;;;1.05;0.77;;;18.20;35.70;;;;;;5077681;28;20169;-79
2021/04/08 07:00:15;;;;;;;0.63;0.60;;;18.30;35.40;;;;;;5060064;28;20199;-79
2021/04/08 07:02:42;;;;;;;1.13;0.55;;;18.30;35.50;;;;;;5077208;28;20261;-79
2021/04/08 07:05:10;;;;;;;1.48;0.70;;;18.30;35.40;;;;;;5058582;28;20546;-79
2021/04/08 07:07:44;;;;;;;1.90;0.70;;;18.20;35.50;;;;;;5075575;28;20157;-79
2021/04/08 07:10:11;;;;;;;1.17;0.70;;;18.20;35.30;;;;;;5076742;28;20639;-79
2021/04/08 07:12:38;;;;;;;0.80;0.65;;;18.20;35.50;;;;;;5060047;28;20171;-79
2021/04/08 07:15:07;;;;;;;1.60;0.80;;;18.10;35.50;;;;;;5075606;28;20189;-79
2021/04/08 07:17:34;;;;;;;2.00;1.00;;;18.10;35.40;;;;;;5059819;28;20169;-78
2021/04/08 07:20:01;;;;;;;2.08;0.80;;;18.10;35.50;;;;;;5076574;28;20632;-79
2021/04/08 07:22:28;;;;;;;1.80;0.70;;;18.10;35.40;;;;;;5078544;28;20196;-79
2021/04/08 07:24:54;;;;;;;0.98;0.70;;;18.10;35.60;;;;;;5078648;28;20173;-79
2021/04/08 07:27:22;;;;;;;1.10;1.00;;;18.10;35.60;;;;;;5079370;28;20236;-79
2021/04/08 07:29:55;;;;;;;1.02;0.80;;;18.10;35.60;;;;;;5078530;28;20248;-79
2021/04/08 07:32:32;;;;;;;1.23;0.95;;;18.10;35.60;;;;;;5061188;28;20242;-78
2021/04/08 07:35:17;;;;;;;1.35;0.70;;;18.10;35.60;;;;;;5078329;28;20254;-79
2021/04/08 07:37:55;;;;;;;0.93;0.63;;;18.10;35.60;;;;;;5078280;28;20180;-79
2021/04/08 07:40:23;;;;;;;0.70;0.65;;;18.10;35.70;;;;;;5060681;28;20524;-79
2021/04/08 07:42:51;;;;;;;0.80;0.80;;;18.10;35.40;;;;;;5060616;28;20164;-79
2021/04/08 07:45:30;;;;;;;0.90;0.77;;;18.10;35.40;;;;;;5059349;28;20181;-79
2021/04/08 07:48:02;;;;;;;0.68;0.50;;;18.10;35.60;;;;;;5059446;28;20161;-79
2021/04/08 07:50:28;;;;;;;1.17;0.82;;;18.20;35.30;;;;;;5076101;28;20154;-79
2021/04/08 07:52:54;;;;;;;1.05;0.80;;;18.20;35.30;;;;;;5092732;28;20207;-79
2021/04/08 07:55:29;;;;;;;0.60;0.60;;;18.20;35.30;;;;;;5077848;28;20193;-79
2021/04/08 07:58:09;;;;;;;1.15;0.60;;;18.10;35.30;;;;;;5076828;28;20161;-79
2021/04/08 08:00:37;;;;;;;1.05;0.70;;;18.10;35.30;;;;;;5076291;28;20189;-78
2021/04/08 08:03:05;;;;;;;0.93;0.63;;;18.10;35.40;;;;;;5056640;28;20196;-79
2021/04/08 08:05:36;;;;;;;0.70;0.70;;;18.10;35.40;;;;;;5073649;28;20153;-79
2021/04/08 08:08:12;;;;;;;1.02;0.75;;;18.10;35.50;;;;;;5090729;28;20223;-80
2021/04/08 08:10:39;;;;;;;3.80;0.73;;;18.20;35.40;;;;;;5078210;28;20161;-79
2021/04/08 08:13:30;;;;;;;1.48;0.70;;;18.10;35.40;;;;;;5081184;28;20156;-79
2021/04/08 08:15:57;;;;;;;0.93;0.70;;;18.10;35.50;;;;;;5083312;28;20236;-79
2021/04/08 08:18:32;;;;;;;0.70;0.68;;;18.10;35.30;;;;;;5080880;28;20601;-79
2021/04/08 08:21:16;;;;;;;2.50;0.77;;;18.10;35.30;;;;;;5064647;28;20168;-81
2021/04/08 08:23:46;;;;;;;0.93;0.60;;;18.20;35.30;;;;;;5083067;28;20157;-79
2021/04/08 08:26:30;;;;;;;0.88;0.73;;;18.30;34.80;;;;;;5083497;28;20154;-79
2021/04/08 08:29:10;;;;;;;1.17;0.70;;;18.40;34.80;;;;;;5084100;28;20569;-79
2021/04/08 08:31:44;;;;;;;1.23;0.60;;;18.50;34.50;;;;;;5085145;28;20234;-78
2021/04/08 08:34:23;;;;;;;0.73;0.60;;;18.40;34.50;;;;;;5066498;28;20216;-79
2021/04/08 08:37:13;;;;;;;0.52;0.50;;;18.40;34.50;;;;;;5082335;28;20150;-79
2021/04/08 08:39:41;;;;;;;0.80;0.57;;;18.40;34.40;;;;;;5083313;28;20169;-79
2021/04/08 08:42:10;;;;;;;1.13;0.63;;;18.40;34.50;;;;;;5086621;28;20257;-79
2021/04/08 08:44:38;;;;;;;1.35;0.80;;;18.30;34.50;;;;;;5067164;28;20198;-79
2021/04/08 08:47:28;;;;;;;1.08;0.60;;;18.30;34.40;;;;;;5068656;28;20157;-79
2021/04/08 08:50:11;;;;;;;2.40;0.68;;;18.30;34.40;;;;;;5085912;28;20188;-79
2021/04/08 08:52:39;;;;;;;1.00;0.70;;;18.40;34.30;;;;;;5086434;28;20675;-80
2021/04/08 08:55:25;;;;;;;1.23;0.80;;;18.40;34.20;;;;;;5067521;28;20785;-79
2021/04/08 08:57:53;;;;;;;1.35;0.75;;;18.40;34.10;;;;;;5099551;28;20162;-79
2021/04/08 09:00:30;;;;;;;0.60;0.50;;;18.50;34.00;;;;;;5067239;28;20161;-79
2021/04/08 09:03:05;;;;;;;0.60;0.60;;;18.50;34.00;;;;;;5085062;28;20157;-80
2021/04/08 09:05:34;;;;;;;0.75;0.70;;;18.50;33.80;;;;;;5068643;28;20199;-80
2021/04/08 09:08:14;;;;;;;0.80;0.60;;;18.50;33.90;;;;;;5067116;28;20181;-79
2021/04/08 09:10:41;;;;;;;1.77;0.57;;;18.50;33.80;;;;;;5085407;28;20255;-79
2021/04/08 09:13:11;;;;;;;0.75;0.65;;;18.50;33.90;;;;;;5070690;28;20206;-79
2021/04/08 09:15:45;;;;;;;1.00;0.60;;;18.50;33.60;;;;;;5069004;28;20180;-79
2021/04/08 09:18:13;;;;;;;0.98;0.70;;;18.50;33.50;;;;;;5068277;28;20169;-79
2021/04/08 09:20:40;;;;;;;0.95;0.57;;;18.50;33.30;;;;;;5084685;28;20219;-79
2021/04/08 09:23:11;;;;;;;0.57;0.43;;;18.50;33.30;;;;;;5068912;28;20230;-79
2021/04/08 09:25:39;;;;;;;0.85;0.50;;;18.60;33.20;;;;;;5089453;28;20173;-79
2021/04/08 09:28:12;;;;;;;1.73;0.70;;;18.60;33.20;;;;;;5072598;28;20221;-79
2021/04/08 09:33:17;;;;;;;0.70;0.70;;;18.50;33.20;;;;;;5083727;28;20162;-79
2021/04/08 09:35:44;;;;;;;2.08;0.60;;;18.50;33.30;;;;;;5101764;28;20165;-79
2021/04/08 09:38:10;;;;;;;2.15;0.90;;;18.60;32.90;;;;;;5068921;28;20192;-79
2021/04/08 09:43:12;;;;;;;1.48;0.60;;;18.70;32.70;;;;;;5086902;28;20203;-79
2021/04/08 09:45:58;;;;;;;1.90;0.70;;;18.70;32.80;;;;;;5085603;28;20157;-80
2021/04/08 09:49:08;;;;;;;0.90;0.65;;;18.60;33.00;;;;;;5090536;28;20161;-79
2021/04/08 09:51:41;;;;;;;0.70;0.70;;;18.60;33.10;;;;;;5087218;28;20529;-80
2021/04/08 09:54:19;;;;;;;2.13;0.55;;;18.60;32.90;;;;;;5086548;28;20288;-80
2021/04/08 09:56:57;;;;;;;0.70;0.70;;;18.60;32.70;;;;;;5067413;28;20188;-80
2021/04/08 09:59:27;;;;;;;0.82;0.70;;;18.70;32.60;;;;;;5071172;28;20172;-80
2021/04/08 10:01:53;;;;;;;0.88;0.57;;;18.70;32.60;;;;;;5089821;28;20149;-80
2021/04/08 10:04:38;;;;;;;2.25;0.80;;;18.70;32.40;;;;;;5069880;28;20172;-79
2021/04/08 10:07:13;;;;;;;0.77;0.60;;;18.60;32.50;;;;;;5071112;28;20184;-79
2021/04/08 10:09:59;;;;;;;2.00;0.63;;;18.60;32.30;;;;;;5075056;28;20161;-79
2021/04/08 10:12:33;;;;;;;1.15;0.60;;;18.60;32.30;;;;;;5092601;28;20177;-79
2021/04/08 10:15:00;;;;;;;0.70;0.70;;;18.60;32.20;;;;;;5075776;28;20207;-80
2021/04/08 10:17:38;;;;;;;0.73;0.50;;;18.50;32.40;;;;;;5090221;28;20165;-79
2021/04/08 10:20:07;;;;;;;1.35;0.63;;;18.60;32.30;;;;;;5071692;28;20165;-80
2021/04/08 10:22:48;;;;;;;0.73;0.50;;;18.50;32.30;;;;;;5070312;28;20655;-79
2021/04/08 10:25:22;;;;;;;0.77;0.60;;;18.50;32.30;;;;;;5087425;28;20168;-79
2021/04/08 10:27:54;;;;;;;1.10;0.60;;;18.50;32.40;;;;;;5087090;28;20161;-79
2021/04/08 10:30:22;;;;;;;0.68;0.47;;;18.50;32.30;;;;;;5072893;28;20185;-79
2021/04/08 10:32:49;;;;;;;1.23;0.45;;;18.50;32.30;;;;;;5089200;28;20185;-79
2021/04/08 10:35:29;;;;;;;0.63;0.60;;;18.50;32.30;;;;;;5073366;28;20316;-79
2021/04/08 10:38:03;;;;;;;0.70;0.65;;;18.50;32.90;;;;;;5073695;28;20157;-80
2021/04/08 10:40:29;;;;;;;1.10;0.60;;;18.50;32.20;;;;;;5073447;28;20726;-80
2021/04/08 10:43:15;;;;;;;0.90;0.65;;;18.50;32.10;;;;;;5089670;28;20158;-79
2021/04/08 10:46:00;;;;;;;1.70;0.70;;;18.50;31.90;;;;;;5090219;28;20227;-78
2021/04/08 10:48:27;;;;;;;0.95;0.55;;;18.50;31.90;;;;;;5071814;28;20172;-78
2021/04/08 10:50:54;;;;;;;1.40;0.70;;;18.60;31.60;;;;;;5106259;28;20169;-79
2021/04/08 10:53:21;;;;;;;1.48;0.70;;;18.60;31.70;;;;;;5089297;28;20259;-80
2021/04/08 10:55:48;;;;;;;1.48;0.50;;;18.60;31.60;;;;;;5088680;28;20162;-79
2021/04/08 10:58:27;;;;;;;2.40;0.68;;;18.60;31.30;;;;;;5090462;28;20158;-79
2021/04/08 11:00:54;;;;;;;1.05;0.60;;;18.60;31.50;;;;;;5072788;28;20172;-79
2021/04/08 11:03:22;;;;;;;0.73;0.60;;;18.60;31.20;;;;;;5072488;28;20162;-79
2021/04/08 11:05:48;;;;;;;1.15;0.60;;;18.60;31.40;;;;;;5104722;28;20240;-80
2021/04/08 11:08:13;;;;;;;0.70;0.52;;;18.50;31.40;;;;;;5086012;28;20518;-80
2021/04/08 11:10:41;;;;;;;0.43;0.40;;;18.60;31.40;;;;;;5083760;28;20544;-80
2021/04/08 11:13:10;;;;;;;1.15;0.57;;;18.60;31.40;;;;;;5088367;28;20158;-80
2021/04/08 11:15:39;;;;;;;0.65;0.43;;;18.60;31.50;;;;;;5071994;28;20201;-79
2021/04/08 11:18:20;;;;;;;1.05;0.70;;;18.50;31.40;;;;;;5072329;28;20232;-79
2021/04/08 11:20:48;;;;;;;1.08;0.70;;;18.50;31.40;;;;;;5088629;28;20203;-79
2021/04/08 11:23:18;;;;;;;0.77;0.55;;;18.50;31.20;;;;;;5073267;28;20209;-79
2021/04/08 11:26:04;;;;;;;0.82;0.60;;;18.60;31.10;;;;;;5074336;28;20189;-80
2021/04/08 11:28:30;;;;;;;0.90;0.60;;;18.50;31.20;;;;;;5091884;28;20158;-79
2021/04/08 11:30:58;;;;;;;1.77;0.50;;;18.60;31.10;;;;;;5075816;28;20133;-80
2021/04/08 11:33:24;;;;;;;0.73;0.63;;;18.50;31.00;;;;;;5105918;28;20213;-80
2021/04/08 11:35:50;;;;;;;1.92;0.60;;;18.60;30.90;;;;;;5090554;28;20168;-79
2021/04/08 11:38:20;;;;;;;0.40;0.40;;;18.60;31.20;;;;;;5091123;28;20225;-79
2021/04/08 11:40:51;;;;;;;0.77;0.50;;;18.60;30.90;;;;;;5088463;28;20149;-79
2021/04/08 11:43:32;;;;;;;0.75;0.50;;;18.60;31.00;;;;;;5073131;28;20165;-80
2021/04/08 11:45:59;;;;;;;1.13;0.50;;;18.70;31.70;;;;;;5091140;28;20159;-79
2021/04/08 11:48:27;;;;;;;1.63;0.50;;;18.70;30.80;;;;;;5089852;28;20146;-80
2021/04/08 11:51:03;;;;;;;0.50;0.50;;;18.60;31.00;;;;;;5090139;28;20208;-79
2021/04/08 11:53:35;;;;;;;1.77;0.60;;;18.60;31.10;;;;;;5105974;28;20188;-79
2021/04/08 11:56:01;;;;;;;1.05;0.50;;;18.60;31.00;;;;;;5073246;28;20172;-79
2021/04/08 11:58:29;;;;;;;2.10;0.55;;;18.60;31.10;;;;;;5076318;28;20188;-79
2021/04/08 12:01:34;;;;;;;2.60;0.60;;;18.60;31.10;;;;;;5091565;28;20249;-78
2021/04/08 12:04:14;;;;;;;2.33;0.50;;;18.60;30.80;;;;;;5109075;28;20165;-80
2021/04/08 12:06:48;;;;;;;0.73;0.65;;;18.60;30.70;;;;;;5094308;28;20145;-80
2021/04/08 12:09:37;;;;;;;0.80;0.50;;;18.60;30.50;;;;;;5093681;28;20176;-80
2021/04/08 12:12:05;;;;;;;0.60;0.40;;;18.60;30.60;;;;;;5092078;28;20217;-79
2021/04/08 12:14:51;;;;;;;0.85;0.60;;;18.60;30.50;;;;;;5087332;28;20231;-79
2021/04/08 12:17:17;;;;;;;1.55;0.57;;;18.60;30.50;;;;;;5088418;28;20181;-79
2021/04/08 12:19:44;;;;;;;1.48;0.70;;;18.60;30.50;;;;;;5070115;28;20184;-80
2021/04/08 12:22:20;;;;;;;1.02;0.50;;;18.70;30.40;;;;;;5069922;28;20248;-79
2021/04/08 12:25:10;;;;;;;0.47;0.47;;;18.70;30.20;;;;;;5069813;28;20161;-79
2021/04/08 12:27:37;;;;;;;1.08;0.43;;;18.70;30.20;;;;;;5088308;28;20186;-80
2021/04/08 12:30:07;;;;;;;0.52;0.50;;;18.70;30.20;;;;;;5086673;28;20153;-79
2021/04/08 12:32:42;;;;;;;0.73;0.60;;;18.60;30.20;;;;;;5088308;28;20173;-80
2021/04/08 12:35:10;;;;;;;1.15;0.60;;;18.60;30.20;;;;;;5086844;28;20763;-79
2021/04/08 12:37:45;;;;;;;1.02;0.63;;;18.70;30.00;;;;;;5069692;28;20176;-79
2021/04/08 12:40:12;;;;;;;1.02;0.52;;;18.70;30.00;;;;;;5070141;28;20168;-79
2021/04/08 12:42:39;;;;;;;1.00;0.50;;;18.60;30.00;;;;;;5087194;28;20158;-79
2021/04/08 12:45:07;;;;;;;1.13;0.60;;;18.60;30.10;;;;;;5087246;28;20197;-79
2021/04/08 12:47:33;;;;;;;0.70;0.40;;;18.60;30.10;;;;;;5088670;28;20233;-79
2021/04/08 12:50:08;;;;;;;0.70;0.43;;;18.60;30.00;;;;;;5070372;28;20157;-79
2021/04/08 12:52:33;;;;;;;0.88;0.50;;;18.60;29.90;;;;;;5084385;28;20156;-79
2021/04/08 12:54:59;;;;;;;1.13;0.60;;;18.60;30.00;;;;;;5083691;28;20189;-79
2021/04/08 12:57:24;;;;;;;0.90;0.40;;;18.60;30.00;;;;;;5098743;28;20153;-79
2021/04/08 12:59:51;;;;;;;0.85;0.50;;;18.70;29.90;;;;;;5082996;28;20590;-79
2021/04/08 13:02:18;;;;;;;0.60;0.60;;;18.70;30.00;;;;;;5064959;28;20211;-79
2021/04/08 13:04:43;;;;;;;1.13;0.50;;;18.70;29.90;;;;;;5082968;28;20157;-79
2021/04/08 13:07:09;;;;;;;1.92;0.70;;;18.70;30.00;;;;;;5063714;28;20164;-79
2021/04/08 13:09:35;;;;;;;0.70;0.50;;;18.70;29.90;;;;;;5083382;28;20669;-79
2021/04/08 13:12:02;;;;;;;0.80;0.57;;;18.70;29.90;;;;;;5065665;28;20169;-80